Time;durP1;ratioP1;P1;durP2;ratioP2;P2;SDS_P1;SDS_P2;PMS_P1;PMS_P2;Temp;Humidity;BMP_temperature;BMP_pressure;BME280_temperature;BME280_humidity;BME280_pressure;Samples;Min_cycle;Max_cycle;Signal;HPM_P1;HPM_P2
2024/02/25 00:00:33;;;;;;;;;;;;;;;7.55;81.43;96484.75;7396805;19;1033;-72
2024/02/25 00:03:01;;;;;;;;;;;;;;;7.50;80.92;96484.91;7397026;19;1924;-68
2024/02/25 00:05:31;;;;;;;;;;;;;;;7.42;82.33;96494.66;7396349;19;1842;-68
2024/02/25 00:08:00;;;;;;;;;;;;;;;7.45;84.25;96502.38;7396563;19;1037;-70
2024/02/25 00:10:29;;;;;;;;;;;;;;;7.52;84.51;96500.47;7396540;19;1108;-72
2024/02/25 00:12:57;;;;;;;;;;;;;;;7.49;85.18;96508.38;7396435;19;1982;-67
2024/02/25 00:15:29;;;;;;;;;;;;;;;7.54;86.06;96507.34;7396282;19;1056;-67
2024/02/25 00:17:57;;;;;;;;;;;;;;;7.61;86.23;96508.03;7396803;19;1480;-67
2024/02/25 00:20:26;;;;;;;;;;;;;;;7.71;86.36;96513.88;7396680;19;964;-69
2024/02/25 00:22:54;;;;;;;;;;;;;;;7.65;84.60;96512.25;7396161;19;1112;-70
2024/02/25 00:25:23;;;;;;;;;;;;;;;7.71;83.21;96506.06;7395964;19;1845;-70
2024/02/25 00:27:51;;;;;;;;;;;;;;;7.72;82.75;96502.53;7396415;19;1809;-69
2024/02/25 00:30:20;;;;;;;;;;;;;;;7.71;81.78;96498.25;7396421;19;1907;-67
2024/02/25 00:32:51;;;;;;;;;;;;;;;7.71;82.12;96509.50;7396722;19;1628;-68
2024/02/25 00:35:20;;;;;;;;;;;;;;;7.71;81.84;96517.31;7395887;19;1846;-65
2024/02/25 00:37:48;;;;;;;;;;;;;;;7.71;81.76;96513.88;7395798;19;1010;-67
2024/02/25 00:40:17;;;;;;;;;;;;;;;7.74;81.42;96513.78;7396268;19;1621;-70
2024/02/25 00:42:46;;;;;;;;;;;;;;;7.76;80.99;96511.97;7395382;19;1932;-63
2024/02/25 00:45:14;;;;;;;;;;;;;;;7.78;81.59;96498.91;7395761;19;1037;-67
2024/02/25 00:47:43;;;;;;;;;;;;;;;7.74;80.71;96499.91;7393516;19;1857;-72
2024/02/25 00:50:15;;;;;;;;;;;;;;;7.73;81.43;96495.59;7395905;19;986;-71
2024/02/25 00:52:43;;;;;;;;;;;;;;;7.67;81.74;96489.66;7395843;19;1032;-66
2024/02/25 00:55:11;;;;;;;;;;;;;;;7.70;82.44;96501.72;7395336;19;1049;-70
2024/02/25 00:57:40;;;;;;;;;;;;;;;7.73;82.21;96499.03;7399838;19;1887;-67
2024/02/25 01:00:09;;;;;;;;;;;;;;;7.70;82.59;96499.97;7402656;19;1093;-67
2024/02/25 01:02:38;;;;;;;;;;;;;;;7.66;83.05;96493.16;7402522;19;1132;-66
2024/02/25 01:05:07;;;;;;;;;;;;;;;7.69;82.25;96495.69;7402529;19;1044;-71
2024/02/25 01:07:38;;;;;;;;;;;;;;;7.71;82.86;96490.44;7400150;19;1838;-67
2024/02/25 01:10:07;;;;;;;;;;;;;;;7.75;83.21;96491.19;7402356;19;1064;-67
2024/02/25 01:12:36;;;;;;;;;;;;;;;7.79;82.78;96490.19;7402745;19;1071;-65
2024/02/25 01:15:06;;;;;;;;;;;;;;;7.76;82.34;96485.06;7402220;19;1108;-63
2024/02/25 01:17:36;;;;;;;;;;;;;;;7.75;82.35;96476.44;7402485;19;1028;-72
2024/02/25 01:20:05;;;;;;;;;;;;;;;7.75;82.78;96483.38;7402050;19;1092;-68
2024/02/25 01:22:34;;;;;;;;;;;;;;;7.74;82.95;96479.94;7401919;19;1001;-71
2024/02/25 01:25:05;;;;;;;;;;;;;;;7.69;82.34;96480.06;7401859;19;1037;-74
2024/02/25 01:27:33;;;;;;;;;;;;;;;7.65;82.57;96482.78;7399616;19;1846;-67
2024/02/25 01:30:02;;;;;;;;;;;;;;;7.63;83.67;96487.16;7402206;19;1044;-70
2024/02/25 01:32:30;;;;;;;;;;;;;;;7.63;85.75;96488.03;7401517;19;1096;-66
2024/02/25 01:34:59;;;;;;;;;;;;;;;7.63;85.21;96482.81;7402285;19;1737;-65
2024/02/25 01:37:27;;;;;;;;;;;;;;;7.64;84.29;96486.25;7401417;19;1896;-66
2024/02/25 01:39:56;;;;;;;;;;;;;;;7.66;84.27;96482.75;7401694;19;1825;-66
2024/02/25 01:42:27;;;;;;;;;;;;;;;7.66;83.33;96492.28;7401623;19;1036;-67
2024/02/25 01:44:59;;;;;;;;;;;;;;;7.63;83.00;96484.56;7401180;19;1242;-74
2024/02/25 01:47:27;;;;;;;;;;;;;;;7.61;82.08;96476.78;7399770;19;1869;-66
2024/02/25 01:49:56;;;;;;;;;;;;;;;7.57;81.76;96476.03;7400984;19;1123;-67
2024/02/25 01:52:26;;;;;;;;;;;;;;;7.54;82.24;96480.47;7400990;19;1132;-67
2024/02/25 01:54:55;;;;;;;;;;;;;;;7.54;81.77;96491.75;7400903;19;1033;-70
2024/02/25 01:57:23;;;;;;;;;;;;;;;7.53;81.74;96490.00;7401195;19;1904;-70
2024/02/25 01:59:55;;;;;;;;;;;;;;;7.42;82.61;96489.44;7401055;19;919;-70
2024/02/25 02:02:23;;;;;;;;;;;;;;;7.37;83.91;96488.72;7401122;19;1045;-69
2024/02/25 02:04:52;;;;;;;;;;;;;;;7.40;84.47;96486.03;7400808;19;1864;-69
2024/02/25 02:07:21;;;;;;;;;;;;;;;7.41;83.27;96485.16;7398963;19;1846;-71
2024/02/25 02:09:50;;;;;;;;;;;;;;;7.34;82.78;96481.84;7399233;19;1929;-70
2024/02/25 02:12:19;;;;;;;;;;;;;;;7.26;83.23;96481.19;7400183;19;1092;-71
2024/02/25 02:14:47;;;;;;;;;;;;;;;7.16;83.39;96490.97;7400353;19;878;-71
2024/02/25 02:17:19;;;;;;;;;;;;;;;7.15;85.50;96484.94;7400408;19;1822;-65
2024/02/25 02:19:47;;;;;;;;;;;;;;;7.20;85.86;96482.22;7399894;19;1345;-72
2024/02/25 02:22:18;;;;;;;;;;;;;;;7.11;84.88;96482.44;7400344;19;1040;-74
2024/02/25 02:24:47;;;;;;;;;;;;;;;7.08;85.18;96486.81;7399833;19;1123;-67
2024/02/25 02:27:15;;;;;;;;;;;;;;;7.05;84.30;96476.47;7398542;19;1832;-73
2024/02/25 02:29:45;;;;;;;;;;;;;;;6.98;85.32;96487.09;7400095;19;982;-63
2024/02/25 02:32:13;;;;;;;;;;;;;;;6.93;87.49;96475.03;7399515;19;1053;-64
2024/02/25 02:34:42;;;;;;;;;;;;;;;7.00;86.94;96474.88;7399519;19;1034;-64
2024/02/25 02:37:10;;;;;;;;;;;;;;;7.00;85.62;96462.75;7399342;19;1120;-67
2024/02/25 02:39:42;;;;;;;;;;;;;;;6.90;85.42;96469.94;7399273;19;1140;-69
2024/02/25 02:42:11;;;;;;;;;;;;;;;6.89;85.13;96467.38;7399171;19;1081;-67
2024/02/25 02:44:40;;;;;;;;;;;;;;;6.85;86.35;96460.50;7397270;19;1292;-69
2024/02/25 02:47:09;;;;;;;;;;;;;;;6.85;85.85;96466.56;7398662;19;1842;-69
2024/02/25 02:49:37;;;;;;;;;;;;;;;6.83;86.65;96466.63;7399356;19;1017;-67
2024/02/25 02:52:06;;;;;;;;;;;;;;;6.87;87.42;96475.22;7399112;19;2021;-68
2024/02/25 02:54:34;;;;;;;;;;;;;;;6.90;87.59;96482.94;7399193;19;1907;-65
2024/02/25 02:57:06;;;;;;;;;;;;;;;7.02;88.42;96486.13;7399174;19;972;-71
2024/02/25 02:59:35;;;;;;;;;;;;;;;7.03;87.99;96493.03;7399185;19;1019;-70
2024/02/25 03:02:03;;;;;;;;;;;;;;;7.05;86.38;96492.09;7398558;19;2403;-67
2024/02/25 03:04:32;;;;;;;;;;;;;;;7.06;85.88;96505.94;7399122;19;1813;-69
2024/02/25 03:07:01;;;;;;;;;;;;;;;7.06;85.03;96500.75;7398647;19;1845;-70
2024/02/25 03:09:29;;;;;;;;;;;;;;;7.05;85.45;96499.06;7398816;19;1950;-69
2024/02/25 03:11:57;;;;;;;;;;;;;;;6.98;85.53;96494.91;7398677;19;1024;-67
2024/02/25 03:14:28;;;;;;;;;;;;;;;6.98;85.32;96500.94;7398210;19;1056;-73
2024/02/25 03:16:57;;;;;;;;;;;;;;;6.99;85.40;96501.78;7398549;19;1021;-67
2024/02/25 03:19:25;;;;;;;;;;;;;;;6.95;87.31;96504.47;7398250;19;1052;-67
2024/02/25 03:21:54;;;;;;;;;;;;;;;6.90;86.87;96508.06;7396129;19;1814;-67
2024/02/25 03:24:23;;;;;;;;;;;;;;;6.92;87.73;96512.34;7397884;19;1021;-62
2024/02/25 03:26:53;;;;;;;;;;;;;;;6.97;87.67;96513.97;7397767;19;1857;-66
2024/02/25 03:29:21;;;;;;;;;;;;;;;7.01;87.06;96519.06;7398063;19;1905;-70
2024/02/25 03:31:52;;;;;;;;;;;;;;;7.02;86.98;96528.59;7398073;19;1031;-72
2024/02/25 03:34:21;;;;;;;;;;;;;;;7.04;86.39;96521.59;7397567;19;1041;-66
2024/02/25 03:36:49;;;;;;;;;;;;;;;6.95;87.60;96514.88;7397727;19;860;-67
2024/02/25 03:39:18;;;;;;;;;;;;;;;7.05;88.29;96515.50;7397798;19;1800;-69
2024/02/25 03:41:47;;;;;;;;;;;;;;;7.03;87.12;96519.91;7397675;19;1046;-68
2024/02/25 03:44:15;;;;;;;;;;;;;;;6.94;87.63;96514.91;7395704;19;1203;-62
2024/02/25 03:46:45;;;;;;;;;;;;;;;6.94;88.76;96507.09;7397398;19;1849;-68
2024/02/25 03:49:16;;;;;;;;;;;;;;;6.99;90.13;96518.28;7397151;19;1819;-66
2024/02/25 03:51:45;;;;;;;;;;;;;;;7.03;88.10;96519.91;7396968;19;1941;-65
2024/02/25 03:54:13;;;;;;;;;;;;;;;6.94;88.69;96514.91;7397748;19;1729;-67
2024/02/25 03:56:42;;;;;;;;;;;;;;;6.83;88.96;96520.34;7397652;19;1666;-61
2024/02/25 03:59:10;;;;;;;;;;;;;;;6.85;89.46;96529.00;7396825;19;1026;-69
2024/02/25 04:01:39;;;;;;;;;;;;;;;6.90;88.06;96534.94;7397167;19;1899;-72
2024/02/25 04:04:07;;;;;;;;;;;;;;;6.92;88.22;96527.94;7397071;19;1978;-72
2024/02/25 04:06:38;;;;;;;;;;;;;;;6.92;88.38;96522.75;7397104;19;1809;-69
2024/02/25 04:09:07;;;;;;;;;;;;;;;6.94;88.72;96522.72;7397183;19;965;-67
2024/02/25 04:11:36;;;;;;;;;;;;;;;6.96;88.46;96515.75;7396542;19;1033;-67
2024/02/25 04:14:04;;;;;;;;;;;;;;;6.89;87.94;96516.78;7396725;19;975;-68
2024/02/25 04:16:33;;;;;;;;;;;;;;;6.91;87.84;96518.44;7397149;19;1740;-72
2024/02/25 04:21:52;;;;;;;;;;;;;;;7.01;88.86;96526.03;7396065;19;767;-67
2024/02/25 04:24:20;;;;;;;;;;;;;;;6.99;88.99;96530.41;7396655;19;1591;-75
2024/02/25 04:26:50;;;;;;;;;;;;;;;6.99;90.38;96531.28;7396532;19;1851;-70
2024/02/25 04:29:19;;;;;;;;;;;;;;;7.05;90.10;96528.50;7396070;19;1101;-66
2024/02/25 04:31:48;;;;;;;;;;;;;;;7.04;89.48;96518.13;7398029;19;1960;-70
2024/02/25 04:34:17;;;;;;;;;;;;;;;7.02;89.71;96518.19;7403818;19;1777;-68
2024/02/25 04:36:45;;;;;;;;;;;;;;;7.05;88.64;96525.06;7403856;19;1048;-69
2024/02/25 04:39:16;;;;;;;;;;;;;;;7.06;89.18;96529.38;7403852;19;1017;-66
2024/02/25 04:41:45;;;;;;;;;;;;;;;7.07;89.31;96528.47;7403706;19;1201;-73
2024/02/25 04:44:13;;;;;;;;;;;;;;;7.04;89.43;96528.53;7400360;19;1935;-68
2024/02/25 04:46:42;;;;;;;;;;;;;;;7.07;89.18;96534.53;7403239;19;1077;-69
2024/02/25 04:49:11;;;;;;;;;;;;;;;7.13;89.75;96530.91;7400431;19;1901;-67
2024/02/25 04:51:40;;;;;;;;;;;;;;;7.18;89.07;96525.63;7403579;19;1025;-70
2024/02/25 04:54:09;;;;;;;;;;;;;;;7.14;88.13;96530.06;7402923;19;1057;-69
2024/02/25 04:56:41;;;;;;;;;;;;;;;7.14;88.46;96535.25;7402828;19;1045;-65
2024/02/25 04:59:09;;;;;;;;;;;;;;;7.15;88.83;96536.09;7402791;19;926;-63
2024/02/25 05:01:38;;;;;;;;;;;;;;;7.15;89.06;96549.09;7402654;19;1148;-71
2024/02/25 05:04:08;;;;;;;;;;;;;;;7.19;89.48;96543.78;7402604;19;1127;-72
2024/02/25 05:06:37;;;;;;;;;;;;;;;7.21;89.36;96546.34;7402486;19;1092;-65
2024/02/25 05:09:06;;;;;;;;;;;;;;;7.26;89.70;96544.50;7400450;19;1843;-73
2024/02/25 05:11:32;;;;;;;;;;;;;;;7.25;89.97;96540.19;7402242;19;1080;-67
2024/02/25 05:14:04;;;;;;;;;;;;;;;7.28;90.39;96534.91;7402104;19;1174;-68
2024/02/25 05:16:32;;;;;;;;;;;;;;;7.31;89.95;96532.22;7402173;19;1850;-71
2024/02/25 05:19:01;;;;;;;;;;;;;;;7.25;90.92;96527.16;7402115;19;997;-67
2024/02/25 05:21:29;;;;;;;;;;;;;;;7.30;93.07;96520.13;7402246;19;1816;-67
2024/02/25 05:23:58;;;;;;;;;;;;;;;7.41;93.57;96506.81;7402129;19;1889;-69
2024/02/25 05:26:26;;;;;;;;;;;;;;;7.37;92.73;96494.78;7403197;19;1704;-70
2024/02/25 05:28:55;;;;;;;;;;;;;;;7.30;93.11;96475.88;7400211;19;1845;-73
2024/02/25 05:31:26;;;;;;;;;;;;;;;7.39;95.21;96459.16;7401919;19;1914;-73
2024/02/25 05:33:55;;;;;;;;;;;;;;;7.53;96.74;96481.38;7401577;19;1196;-72
2024/02/25 05:36:25;;;;;;;;;;;;;;;7.67;96.62;96505.28;7401367;19;1092;-70
2024/02/25 05:38:53;;;;;;;;;;;;;;;7.76;95.76;96525.00;7401545;19;1049;-71
2024/02/25 05:41:22;;;;;;;;;;;;;;;7.84;95.41;96538.69;7401645;19;1805;-65
2024/02/25 05:43:54;;;;;;;;;;;;;;;7.94;94.79;96536.66;7396368;19;1171;-63
2024/02/25 05:46:22;;;;;;;;;;;;;;;8.05;94.08;96539.00;7401608;19;979;-65
2024/02/25 05:48:53;;;;;;;;;;;;;;;8.15;92.88;96546.53;7399456;19;1854;-74
2024/02/25 05:51:22;;;;;;;;;;;;;;;8.22;92.63;96546.31;7400984;19;1057;-71
2024/02/25 05:53:50;;;;;;;;;;;;;;;8.31;91.92;96545.19;7401383;19;930;-61
2024/02/25 05:56:19;;;;;;;;;;;;;;;8.40;91.41;96541.47;7401272;19;1828;-66
2024/02/25 05:58:49;;;;;;;;;;;;;;;8.51;90.45;96551.59;7400880;19;1013;-73
2024/02/25 06:01:18;;;;;;;;;;;;;;;8.58;90.29;96547.91;7400746;19;1046;-68
2024/02/25 06:03:46;;;;;;;;;;;;;;;8.66;88.99;96552.03;7400639;19;1061;-64
2024/02/25 06:06:18;;;;;;;;;;;;;;;8.72;88.73;96557.09;7400421;19;1122;-68
2024/02/25 06:08:46;;;;;;;;;;;;;;;8.82;87.89;96552.47;7399010;19;1809;-66
2024/02/25 06:11:15;;;;;;;;;;;;;;;8.93;87.36;96539.94;7400757;19;957;-68
2024/02/25 06:13:44;;;;;;;;;;;;;;;9.07;86.80;96531.66;7400254;19;1053;-67
2024/02/25 06:16:12;;;;;;;;;;;;;;;9.19;85.81;96525.19;7400407;19;1899;-68
2024/02/25 06:18:41;;;;;;;;;;;;;;;9.35;86.77;96519.44;7400402;19;1814;-71
2024/02/25 06:21:10;;;;;;;;;;;;;;;9.52;85.11;96510.19;7400407;19;1048;-73
2024/02/25 06:23:41;;;;;;;;;;;;;;;9.86;84.47;96515.09;7400385;19;1055;-69
2024/02/25 06:26:10;;;;;;;;;;;;;;;10.40;82.31;96521.03;7399733;19;1143;-62
2024/02/25 06:28:39;;;;;;;;;;;;;;;10.74;80.42;96535.47;7399081;19;1875;-69
2024/02/25 06:31:08;;;;;;;;;;;;;;;11.03;78.05;96543.09;7400142;19;1175;-65
2024/02/25 06:33:37;;;;;;;;;;;;;;;11.18;76.32;96542.47;7400004;19;1068;-72
2024/02/25 06:36:06;;;;;;;;;;;;;;;11.28;75.48;96542.09;7399963;19;1043;-69
2024/02/25 06:38:35;;;;;;;;;;;;;;;11.39;74.17;96542.50;7399535;19;1124;-67
2024/02/25 06:41:06;;;;;;;;;;;;;;;11.46;73.90;96548.34;7399690;19;1892;-69
2024/02/25 06:43:35;;;;;;;;;;;;;;;11.48;73.75;96557.00;7398235;19;1222;-70
2024/02/25 06:46:05;;;;;;;;;;;;;;;11.55;72.66;96552.34;7399253;19;1135;-71
2024/02/25 06:48:34;;;;;;;;;;;;;;;11.51;72.41;96556.88;7398739;19;1853;-72
2024/02/25 06:51:02;;;;;;;;;;;;;;;11.53;72.45;96551.56;7399054;19;1085;-65
2024/02/25 06:53:33;;;;;;;;;;;;;;;11.46;72.13;96553.56;7399603;19;1082;-67
2024/02/25 06:56:02;;;;;;;;;;;;;;;11.46;72.19;96549.19;7399032;19;1022;-67
2024/02/25 06:58:34;;;;;;;;;;;;;;;11.45;72.51;96550.13;7398800;19;1139;-66
2024/02/25 07:01:03;;;;;;;;;;;;;;;11.51;73.98;96549.00;7398686;19;1200;-65
2024/02/25 07:03:31;;;;;;;;;;;;;;;11.71;72.35;96557.81;7398699;19;1151;-71
2024/02/25 07:06:00;;;;;;;;;;;;;;;11.73;71.65;96562.06;7398719;19;879;-64
2024/02/25 07:08:29;;;;;;;;;;;;;;;11.78;72.22;96561.88;7397791;19;1838;-68
2024/02/25 07:10:57;;;;;;;;;;;;;;;11.82;71.84;96558.19;7398469;19;1124;-65
2024/02/25 07:13:26;;;;;;;;;;;;;;;12.15;71.94;96545.47;7398401;19;1092;-65
2024/02/25 07:15:58;;;;;;;;;;;;;;;12.54;69.95;96549.84;7398519;19;1804;-71
2024/02/25 07:18:26;;;;;;;;;;;;;;;13.07;68.07;96557.06;7398210;19;1049;-67
2024/02/25 07:20:55;;;;;;;;;;;;;;;13.53;66.78;96561.88;7398500;19;942;-71
2024/02/25 07:23:24;;;;;;;;;;;;;;;13.63;65.36;96562.25;7398009;19;1037;-70
2024/02/25 07:25:53;;;;;;;;;;;;;;;13.83;65.53;96566.53;7398104;19;1828;-69
2024/02/25 07:28:24;;;;;;;;;;;;;;;13.99;63.93;96557.84;7397530;19;1900;-76
2024/02/25 07:30:52;;;;;;;;;;;;;;;13.98;63.14;96551.75;7397652;19;1137;-72
2024/02/25 07:33:24;;;;;;;;;;;;;;;13.90;63.42;96549.50;7397603;19;1112;-68
2024/02/25 07:35:52;;;;;;;;;;;;;;;13.82;63.59;96546.41;7397993;19;1040;-62
2024/02/25 07:38:22;;;;;;;;;;;;;;;13.71;63.81;96546.09;7397414;19;1042;-68
2024/02/25 07:40:52;;;;;;;;;;;;;;;13.56;64.47;96542.47;7397325;19;1108;-67
2024/02/25 07:43:21;;;;;;;;;;;;;;;13.40;64.65;96536.16;7396592;19;1869;-72
2024/02/25 07:45:49;;;;;;;;;;;;;;;13.32;65.35;96538.34;7397266;19;1045;-73
2024/02/25 07:48:18;;;;;;;;;;;;;;;13.27;65.97;96535.06;7397258;19;1847;-64
2024/02/25 07:50:49;;;;;;;;;;;;;;;13.27;66.04;96532.44;7397087;19;1123;-71
2024/02/25 07:53:18;;;;;;;;;;;;;;;13.36;66.33;96524.13;7397178;19;1128;-64
2024/02/25 07:55:47;;;;;;;;;;;;;;;13.41;66.07;96523.91;7397855;19;1656;-67
2024/02/25 07:58:15;;;;;;;;;;;;;;;13.39;65.46;96525.72;7396947;19;1119;-72
2024/02/25 08:00:44;;;;;;;;;;;;;;;13.40;65.80;96527.47;7397573;19;1619;-73
2024/02/25 08:03:13;;;;;;;;;;;;;;;13.37;65.81;96525.81;7397112;19;1841;-67
2024/02/25 08:05:43;;;;;;;;;;;;;;;13.35;65.42;96521.56;7396932;19;1074;-68
2024/02/25 08:08:14;;;;;;;;;;;;;;;13.27;65.76;96520.16;7395566;19;1846;-66
2024/02/25 08:10:42;;;;;;;;;;;;;;;13.22;66.84;96521.34;7396567;19;1100;-71
2024/02/25 08:13:11;;;;;;;;;;;;;;;13.20;66.47;96523.16;7396486;19;1045;-70
2024/02/25 08:15:40;;;;;;;;;;;;;;;13.22;66.59;96514.28;7396420;19;1127;-69
2024/02/25 08:18:08;;;;;;;;;;;;;;;13.23;66.72;96512.50;7396710;19;1925;-71
2024/02/25 08:20:37;;;;;;;;;;;;;;;13.27;66.67;96516.69;7395876;19;1340;-72
2024/02/25 08:23:06;;;;;;;;;;;;;;;13.27;67.01;96517.53;7396918;19;977;-72
2024/02/25 08:25:37;;;;;;;;;;;;;;;13.31;66.84;96523.50;7396687;19;1977;-72
2024/02/25 08:28:06;;;;;;;;;;;;;;;13.36;66.72;96528.50;7396163;19;1845;-71
2024/02/25 08:30:36;;;;;;;;;;;;;;;13.44;65.68;96533.38;7396684;19;1056;-73
2024/02/25 08:33:05;;;;;;;;;;;;;;;13.48;66.12;96537.56;7396106;19;1092;-65
2024/02/25 08:35:33;;;;;;;;;;;;;;;13.47;66.23;96528.84;7396676;19;1059;-70
2024/02/25 08:38:02;;;;;;;;;;;;;;;13.52;66.41;96524.22;7396170;19;1932;-72
2024/02/25 08:40:31;;;;;;;;;;;;;;;13.56;67.05;96524.06;7395799;19;1104;-65
2024/02/25 08:43:03;;;;;;;;;;;;;;;13.71;66.42;96523.31;7395320;19;1154;-68
2024/02/25 08:45:31;;;;;;;;;;;;;;;13.79;65.79;96520.28;7395574;19;1127;-67
2024/02/25 08:48:00;;;;;;;;;;;;;;;13.77;65.79;96523.00;7395695;19;1065;-66
2024/02/25 08:50:29;;;;;;;;;;;;;;;13.73;66.25;96520.59;7393532;19;1902;-65
2024/02/25 08:52:58;;;;;;;;;;;;;;;13.43;66.79;96518.56;7395766;19;867;-70
2024/02/25 08:55:27;;;;;;;;;;;;;;;13.39;68.03;96517.84;7395363;19;1344;-64
2024/02/25 08:57:56;;;;;;;;;;;;;;;13.52;69.10;96513.72;7395724;19;1827;-67
2024/02/25 09:00:28;;;;;;;;;;;;;;;13.67;67.09;96515.66;7395260;19;1025;-70
2024/02/25 09:02:59;;;;;;;;;;;;;;;13.72;67.20;96514.50;7395207;19;1108;-71
2024/02/25 09:05:29;;;;;;;;;;;;;;;13.74;66.48;96503.91;7395158;19;1037;-65
2024/02/25 09:07:59;;;;;;;;;;;;;;;13.79;66.45;96511.56;7395184;19;1041;-67
2024/02/25 09:10:27;;;;;;;;;;;;;;;13.96;66.32;96511.53;7393070;19;1915;-66
2024/02/25 09:12:57;;;;;;;;;;;;;;;14.30;66.48;96513.31;7395014;19;1302;-71
2024/02/25 09:15:29;;;;;;;;;;;;;;;14.69;64.67;96513.84;7395269;19;1043;-68
2024/02/25 09:17:58;;;;;;;;;;;;;;;15.09;62.67;96516.94;7394945;19;1104;-68
2024/02/25 09:20:29;;;;;;;;;;;;;;;15.37;59.81;96525.88;7401382;19;1120;-69
2024/02/25 09:23:00;;;;;;;;;;;;;;;15.49;59.76;96524.31;7401956;19;1116;-69
2024/02/25 09:25:33;;;;;;;;;;;;;;;15.58;60.29;96525.56;7402351;19;965;-64
2024/02/25 09:28:02;;;;;;;;;;;;;;;15.52;59.55;96518.00;7401444;19;1104;-66
2024/02/25 09:30:33;;;;;;;;;;;;;;;15.58;60.59;96517.66;7399133;19;1894;-70
2024/02/25 09:33:05;;;;;;;;;;;;;;;15.66;60.30;96506.66;7401613;19;1021;-64
2024/02/25 09:35:33;;;;;;;;;;;;;;;15.73;60.61;96493.94;7401495;19;1040;-67
2024/02/25 09:38:02;;;;;;;;;;;;;;;15.75;59.73;96489.44;7401497;19;1028;-76
2024/02/25 09:40:31;;;;;;;;;;;;;;;15.99;60.33;96483.66;7401803;19;1445;-69
2024/02/25 09:43:01;;;;;;;;;;;;;;;16.31;60.48;96490.53;7400951;19;1798;-70
2024/02/25 09:45:32;;;;;;;;;;;;;;;16.65;59.06;96489.25;7401704;19;1053;-71
2024/02/25 09:48:03;;;;;;;;;;;;;;;16.86;58.01;96486.19;7401113;19;1029;-68
2024/02/25 09:50:33;;;;;;;;;;;;;;;16.83;55.83;96485.53;7399410;19;1903;-68
2024/02/25 09:53:02;;;;;;;;;;;;;;;16.66;57.53;96483.03;7400897;19;1123;-71
2024/02/25 09:55:31;;;;;;;;;;;;;;;16.78;57.33;96480.56;7401174;19;1820;-73
2024/02/25 09:58:00;;;;;;;;;;;;;;;17.15;55.06;96469.41;7401400;19;1017;-75
2024/02/25 10:00:28;;;;;;;;;;;;;;;17.31;53.20;96474.53;7401243;19;1029;-68
2024/02/25 10:02:57;;;;;;;;;;;;;;;17.31;53.08;96469.25;7400717;19;1041;-66
2024/02/25 10:05:28;;;;;;;;;;;;;;;17.06;53.75;96465.53;7400947;19;1846;-75
2024/02/25 10:08:03;;;;;;;;;;;;;;;16.92;54.07;96464.66;7400552;19;1040;-67
2024/02/25 10:10:33;;;;;;;;;;;;;;;16.99;54.62;96448.41;7398921;19;1985;-67
2024/02/25 10:13:03;;;;;;;;;;;;;;;17.16;54.51;96448.16;7400273;19;1136;-65
2024/02/25 10:15:31;;;;;;;;;;;;;;;17.35;55.10;96440.81;7400736;19;1030;-73
2024/02/25 10:18:00;;;;;;;;;;;;;;;17.45;54.03;96435.75;7400257;19;1045;-65
2024/02/25 10:20:32;;;;;;;;;;;;;;;17.46;54.12;96435.63;7400091;19;1049;-65
2024/02/25 10:23:09;;;;;;;;;;;;;;;17.44;53.03;96437.56;7399449;19;1239;-70
2024/02/25 10:25:38;;;;;;;;;;;;;;;17.64;52.61;96448.56;7399892;19;1044;-73
2024/02/25 10:28:11;;;;;;;;;;;;;;;17.45;51.63;96451.63;7400603;19;1469;-72
2024/02/25 10:30:39;;;;;;;;;;;;;;;17.22;53.37;96443.44;7397056;19;1842;-76
2024/02/25 10:33:17;;;;;;;;;;;;;;;17.48;52.74;96438.16;7399116;19;978;-65
2024/02/25 10:35:49;;;;;;;;;;;;;;;17.64;53.12;96440.66;7397689;19;1462;-69
2024/02/25 10:38:19;;;;;;;;;;;;;;;17.65;53.02;96429.09;7399714;19;1127;-64
2024/02/25 10:40:48;;;;;;;;;;;;;;;17.59;52.75;96434.81;7399533;19;1092;-65
2024/02/25 10:43:17;;;;;;;;;;;;;;;17.48;52.92;96422.31;7398403;19;1135;-65
2024/02/25 10:45:46;;;;;;;;;;;;;;;17.48;53.31;96415.22;7399008;19;1115;-65
2024/02/25 10:48:15;;;;;;;;;;;;;;;17.48;53.46;96412.59;7399195;19;1109;-65
2024/02/25 10:50:44;;;;;;;;;;;;;;;17.38;53.79;96409.75;7398218;19;1849;-65
2024/02/25 10:53:18;;;;;;;;;;;;;;;17.08;53.72;96402.91;7399317;19;1002;-65
2024/02/25 10:55:48;;;;;;;;;;;;;;;16.79;55.51;96401.22;7398933;19;1108;-65
2024/02/25 10:58:19;;;;;;;;;;;;;;;16.73;56.69;96404.25;7398861;19;1139;-65
2024/02/25 11:00:49;;;;;;;;;;;;;;;16.51;56.98;96394.25;7398724;19;1964;-65
2024/02/25 11:03:19;;;;;;;;;;;;;;;16.34;56.63;96384.78;7399037;19;1911;-65
2024/02/25 11:05:47;;;;;;;;;;;;;;;16.33;57.13;96383.94;7398624;19;1045;-65
2024/02/25 11:08:28;;;;;;;;;;;;;;;16.15;58.26;96389.44;7402468;19;1265;-65
2024/02/25 11:11:00;;;;;;;;;;;;;;;16.17;58.89;96376.16;7397326;19;1854;-65
2024/02/25 11:13:29;;;;;;;;;;;;;;;16.27;59.02;96371.97;7398831;19;1043;-65
2024/02/25 11:15:58;;;;;;;;;;;;;;;16.25;58.98;96384.41;7398799;19;953;-65
2024/02/25 11:18:28;;;;;;;;;;;;;;;16.14;59.42;96385.06;7398705;19;1121;-65
2024/02/25 11:21:07;;;;;;;;;;;;;;;16.06;59.99;96383.88;7398180;19;974;-66
2024/02/25 11:23:46;;;;;;;;;;;;;;;16.12;60.34;96379.06;7400704;19;1283;-65
2024/02/25 11:26:30;;;;;;;;;;;;;;;16.14;60.05;96374.53;7398127;19;1111;-65
2024/02/25 11:29:13;;;;;;;;;;;;;;;16.20;61.03;96367.19;7397782;19;1123;-65
2024/02/25 11:31:51;;;;;;;;;;;;;;;16.28;60.52;96367.53;7397662;19;1072;-65
2024/02/25 11:34:22;;;;;;;;;;;;;;;16.24;59.94;96371.31;7398060;19;960;-65
2024/02/25 11:36:52;;;;;;;;;;;;;;;15.95;60.48;96377.44;7397580;19;1049;-64
2024/02/25 11:39:26;;;;;;;;;;;;;;;15.83;60.59;96365.03;7400450;19;1519;-64
2024/02/25 11:41:55;;;;;;;;;;;;;;;15.70;61.17;96363.16;7395401;19;1107;-66
2024/02/25 11:44:24;;;;;;;;;;;;;;;15.55;62.12;96357.03;7396147;19;1065;-65
2024/02/25 11:46:56;;;;;;;;;;;;;;;15.38;63.08;96351.00;7397314;19;1056;-65
2024/02/25 11:49:25;;;;;;;;;;;;;;;15.22;64.42;96347.59;7396965;19;1838;-65
2024/02/25 11:51:54;;;;;;;;;;;;;;;15.26;64.07;96351.75;7397120;19;1141;-64
2024/02/25 11:54:25;;;;;;;;;;;;;;;15.35;63.99;96338.00;7398247;19;1518;-64
2024/02/25 11:56:55;;;;;;;;;;;;;;;15.49;64.36;96329.25;7396832;19;1021;-65
2024/02/25 11:59:24;;;;;;;;;;;;;;;15.71;62.96;96329.75;7396896;19;1062;-65
2024/02/25 12:01:54;;;;;;;;;;;;;;;15.85;62.72;96328.84;7397238;19;1059;-65
2024/02/25 12:04:22;;;;;;;;;;;;;;;15.94;62.35;96316.88;7396790;19;1141;-65
2024/02/25 12:06:51;;;;;;;;;;;;;;;16.06;62.11;96323.19;7397073;19;1017;-65
2024/02/25 12:09:19;;;;;;;;;;;;;;;16.16;61.81;96313.75;7396900;19;1840;-65
2024/02/25 12:11:51;;;;;;;;;;;;;;;16.16;61.28;96306.69;7400453;19;1817;-64
2024/02/25 12:14:21;;;;;;;;;;;;;;;16.27;61.32;96307.78;7396587;19;1088;-66
2024/02/25 12:16:51;;;;;;;;;;;;;;;16.35;60.67;96307.28;7396481;19;1135;-65
2024/02/25 12:19:21;;;;;;;;;;;;;;;16.36;61.05;96312.47;7396352;19;1392;-65
2024/02/25 12:21:51;;;;;;;;;;;;;;;16.29;61.19;96297.97;7396921;19;1895;-65
2024/02/25 12:24:20;;;;;;;;;;;;;;;16.32;61.27;96304.84;7396399;19;1122;-65
2024/02/25 12:26:55;;;;;;;;;;;;;;;16.31;61.17;96303.16;7398240;19;1480;-64
2024/02/25 12:29:24;;;;;;;;;;;;;;;16.23;61.27;96299.22;7396746;19;1474;-65
2024/02/25 12:31:54;;;;;;;;;;;;;;;16.02;61.76;96290.91;7401097;19;1520;-65
2024/02/25 12:34:24;;;;;;;;;;;;;;;15.88;62.38;96289.97;7395880;19;1049;-64
2024/02/25 12:36:54;;;;;;;;;;;;;;;15.87;63.25;96300.59;7395849;19;1042;-65
2024/02/25 12:39:23;;;;;;;;;;;;;;;15.69;63.57;96303.47;7396189;19;1037;-65
2024/02/25 12:42:05;;;;;;;;;;;;;;;15.52;64.13;96289.53;7395244;19;1488;-65
2024/02/25 12:44:33;;;;;;;;;;;;;;;15.47;64.45;96288.13;7393827;19;1196;-65
2024/02/25 12:47:02;;;;;;;;;;;;;;;15.32;65.17;96284.66;7395855;19;1833;-65
2024/02/25 12:49:32;;;;;;;;;;;;;;;15.26;65.47;96286.72;7395611;19;1139;-65
2024/02/25 12:52:01;;;;;;;;;;;;;;;15.19;66.03;96280.13;7395476;19;1029;-66
2024/02/25 12:54:29;;;;;;;;;;;;;;;15.24;65.73;96288.63;7402432;19;1047;-65
2024/02/25 12:57:01;;;;;;;;;;;;;;;15.25;65.97;96292.94;7403133;19;1818;-65
2024/02/25 12:59:30;;;;;;;;;;;;;;;15.25;65.63;96282.41;7405883;19;1478;-64
2024/02/25 13:01:58;;;;;;;;;;;;;;;15.18;66.06;96282.84;7406468;19;1566;-64
2024/02/25 13:04:28;;;;;;;;;;;;;;;15.18;65.82;96280.22;7403032;19;1897;-65
2024/02/25 13:06:57;;;;;;;;;;;;;;;15.27;66.46;96269.13;7402493;19;1115;-65
2024/02/25 13:09:25;;;;;;;;;;;;;;;15.43;65.95;96265.53;7402880;19;981;-65
2024/02/25 13:11:54;;;;;;;;;;;;;;;15.57;64.19;96262.03;7400289;19;1834;-65
2024/02/25 13:14:26;;;;;;;;;;;;;;;15.71;64.99;96248.81;7402340;19;1037;-65
2024/02/25 13:16:54;;;;;;;;;;;;;;;15.92;63.35;96251.88;7406660;19;1465;-65